createdAt,value
2022-08-25T00:00:27.212Z,1009.99
2022-08-25T00:01:27.169Z,1010.02
2022-08-25T00:02:27.212Z,1010.04
2022-08-25T00:03:27.126Z,1009.99
2022-08-25T00:04:27.121Z,1010.03
2022-08-25T00:05:27.746Z,1010.01
2022-08-25T00:06:27.127Z,1010.00
2022-08-25T00:07:27.085Z,1009.99
2022-08-25T00:08:27.076Z,1010.00
2022-08-25T00:09:27.076Z,1009.99
2022-08-25T00:10:27.070Z,1009.98
2022-08-25T00:11:27.037Z,1010.01
2022-08-25T00:12:27.066Z,1010.02
2022-08-25T00:13:27.047Z,1010.00
2022-08-25T00:14:27.014Z,1009.98
2022-08-25T00:15:27.057Z,1009.97
2022-08-25T00:16:26.998Z,1010.03
2022-08-25T00:17:27.008Z,1009.99
2022-08-25T00:18:26.994Z,1010.03
2022-08-25T00:19:27.004Z,1010.01
2022-08-25T00:20:26.950Z,1010.03
2022-08-25T00:21:26.935Z,1010.03
2022-08-25T00:22:26.925Z,1010.08
2022-08-25T00:23:26.927Z,1010.05
2022-08-25T00:24:26.934Z,1010.07
2022-08-25T00:25:26.902Z,1010.07
2022-08-25T00:26:26.878Z,1010.12
2022-08-25T00:27:26.871Z,1010.10
2022-08-25T00:28:26.870Z,1010.10
2022-08-25T00:29:26.848Z,1010.08
2022-08-25T00:30:26.867Z,1010.04
2022-08-25T00:31:37.829Z,1010.09
2022-08-25T00:32:26.834Z,1010.04
2022-08-25T00:33:26.806Z,1010.02
2022-08-25T00:34:26.796Z,1010.04
2022-08-25T00:35:26.794Z,1010.04
2022-08-25T00:36:26.803Z,1010.03
2022-08-25T00:37:26.758Z,1010.04
2022-08-25T00:38:26.760Z,1010.04
2022-08-25T00:39:26.742Z,1010.03
2022-08-25T00:40:26.800Z,1010.04
2022-08-25T00:41:26.753Z,1010.08
2022-08-25T00:42:26.705Z,1010.02
2022-08-25T00:43:26.706Z,1010.04
2022-08-25T00:44:26.697Z,1010.05
2022-08-25T00:45:26.692Z,1010.04
2022-08-25T00:46:26.794Z,1010.03
2022-08-25T00:47:26.685Z,1010.02
2022-08-25T00:48:26.644Z,1010.06
2022-08-25T00:49:26.642Z,1010.04
2022-08-25T00:50:26.751Z,1010.07
2022-08-25T00:51:26.602Z,1010.06
2022-08-25T00:52:26.588Z,1010.02
2022-08-25T00:53:26.643Z,1010.02
2022-08-25T00:54:26.584Z,1009.99
2022-08-25T00:55:26.573Z,1010.01
2022-08-25T00:56:26.544Z,1009.99
2022-08-25T00:57:34.124Z,1010.01
2022-08-25T00:58:26.550Z,1010.00
2022-08-25T00:59:26.537Z,1009.98
2022-08-25T01:00:26.519Z,1009.95
2022-08-25T01:01:26.588Z,1009.98
2022-08-25T01:02:26.504Z,1009.97
2022-08-25T01:03:31.521Z,1009.99
2022-08-25T01:04:26.462Z,1009.99
2022-08-25T01:05:26.457Z,1009.96
2022-08-25T01:06:26.484Z,1010.00
2022-08-25T01:07:26.431Z,1010.00
2022-08-25T01:08:26.414Z,1009.97
2022-08-25T01:09:26.487Z,1009.98
2022-08-25T01:10:26.424Z,1009.97
2022-08-25T01:11:26.388Z,1009.96
2022-08-25T01:12:26.387Z,1009.99
2022-08-25T01:13:26.375Z,1009.95
2022-08-25T01:14:26.453Z,1009.97
2022-08-25T01:15:26.360Z,1009.96
2022-08-25T01:16:26.324Z,1009.95
2022-08-25T01:17:26.327Z,1009.95
2022-08-25T01:18:26.304Z,1009.96
2022-08-25T01:19:26.308Z,1009.95
2022-08-25T01:20:29.202Z,1009.95
2022-08-25T01:21:26.279Z,1009.95
2022-08-25T01:22:26.263Z,1009.94
2022-08-25T01:23:26.256Z,1009.98
2022-08-25T01:24:26.239Z,1009.97
2022-08-25T01:25:26.228Z,1009.98
2022-08-25T01:26:30.365Z,1009.97
2022-08-25T01:27:26.210Z,1010.01
2022-08-25T01:28:26.216Z,1010.02
2022-08-25T01:29:26.185Z,1010.01
2022-08-25T01:30:26.185Z,1009.99
2022-08-25T01:31:26.198Z,1010.04
2022-08-25T01:32:26.210Z,1010.02
2022-08-25T01:33:26.144Z,1010.05
2022-08-25T01:34:26.134Z,1010.02
2022-08-25T01:35:26.136Z,1010.02
2022-08-25T01:36:26.130Z,1010.05
2022-08-25T01:37:26.103Z,1010.00
2022-08-25T01:38:26.117Z,1010.00
2022-08-25T01:39:26.077Z,1009.99
2022-08-25T01:40:26.163Z,1010.03
2022-08-25T01:41:26.063Z,1010.01
2022-08-25T01:42:26.044Z,1010.00
2022-08-25T01:43:26.067Z,1009.99
2022-08-25T01:44:26.036Z,1010.02
2022-08-25T01:45:26.075Z,1009.98
2022-08-25T01:46:26.100Z,1009.96
2022-08-25T01:47:25.997Z,1009.95
2022-08-25T01:48:26.003Z,1009.95
2022-08-25T01:49:26.013Z,1009.95
2022-08-25T01:50:26.004Z,1009.99
2022-08-25T01:51:25.952Z,1009.94
2022-08-25T01:52:25.947Z,1009.96
2022-08-25T01:53:25.942Z,1009.94
2022-08-25T01:54:25.919Z,1009.97
2022-08-25T01:55:25.977Z,1009.95
2022-08-25T01:56:25.899Z,1009.96
2022-08-25T01:57:25.896Z,1009.96
2022-08-25T01:58:25.885Z,1009.97
2022-08-25T01:59:25.855Z,1009.95
2022-08-25T02:00:25.858Z,1009.93
2022-08-25T02:01:25.926Z,1009.96
2022-08-25T02:02:26.264Z,1009.94
2022-08-25T02:03:25.828Z,1009.95
2022-08-25T02:04:25.812Z,1009.96
2022-08-25T02:05:25.793Z,1009.99
2022-08-25T02:06:28.777Z,1009.97
2022-08-25T02:07:25.786Z,1009.95
2022-08-25T02:08:25.801Z,1009.95
2022-08-25T02:09:25.745Z,1009.97
2022-08-25T02:10:25.750Z,1009.95
2022-08-25T02:11:25.730Z,1009.97
2022-08-25T02:12:25.751Z,1009.97
2022-08-25T02:13:26.899Z,1009.98
2022-08-25T02:14:25.715Z,1009.93
2022-08-25T02:15:25.691Z,1009.91
2022-08-25T02:16:25.715Z,1009.85
2022-08-25T02:17:25.669Z,1009.92
2022-08-25T02:18:25.668Z,1009.91
2022-08-25T02:19:25.641Z,1009.91
2022-08-25T02:20:25.630Z,1009.92
2022-08-25T02:21:25.610Z,1009.91
2022-08-25T02:22:25.618Z,1009.94
2022-08-25T02:23:25.612Z,1009.90
2022-08-25T02:24:25.582Z,1009.88
2022-08-25T02:25:25.567Z,1009.90
2022-08-25T02:26:25.566Z,1009.90
2022-08-25T02:27:25.551Z,1009.91
2022-08-25T02:28:25.597Z,1009.89
2022-08-25T02:29:25.521Z,1009.91
2022-08-25T02:30:25.573Z,1009.94
2022-08-25T02:31:25.521Z,1009.94
2022-08-25T02:32:25.504Z,1009.96
2022-08-25T02:33:25.485Z,1009.98
2022-08-25T02:34:25.514Z,1009.96
2022-08-25T02:35:25.472Z,1010.05
2022-08-25T02:36:25.466Z,1009.98
2022-08-25T02:37:25.447Z,1010.02
2022-08-25T02:38:25.418Z,1010.05
2022-08-25T02:39:25.485Z,1010.01
2022-08-25T02:40:25.444Z,1010.01
2022-08-25T02:41:31.087Z,1010.01
2022-08-25T02:42:25.409Z,1010.02
2022-08-25T02:43:25.373Z,1010.02
2022-08-25T02:44:25.386Z,1010.00
2022-08-25T02:45:25.356Z,1009.99
2022-08-25T02:46:25.489Z,1009.95
2022-08-25T02:47:26.853Z,1009.94
2022-08-25T02:48:25.306Z,1009.93
2022-08-25T02:49:25.294Z,1009.95
2022-08-25T02:50:25.301Z,1009.97
2022-08-25T02:51:25.300Z,1009.94
2022-08-25T02:52:25.260Z,1009.92
2022-08-25T02:53:25.259Z,1009.94
2022-08-25T02:54:25.237Z,1009.93
2022-08-25T02:55:25.263Z,1009.90
2022-08-25T02:56:25.221Z,1009.93
2022-08-25T02:57:25.200Z,1009.92
2022-08-25T02:58:25.200Z,1009.93
2022-08-25T02:59:25.186Z,1009.93
2022-08-25T03:00:25.178Z,1009.91
2022-08-25T03:01:28.852Z,1009.95
2022-08-25T03:02:25.148Z,1009.94
2022-08-25T03:03:25.136Z,1009.94
2022-08-25T03:04:25.224Z,1009.98
2022-08-25T03:05:25.116Z,1009.96
2022-08-25T03:06:25.164Z,1009.91
2022-08-25T03:07:25.087Z,1009.92
2022-08-25T03:08:25.079Z,1009.95
2022-08-25T03:09:25.075Z,1009.93
2022-08-25T03:10:25.105Z,1009.90
2022-08-25T03:11:25.042Z,1009.95
2022-08-25T03:12:25.064Z,1009.92
2022-08-25T03:13:25.020Z,1009.96
2022-08-25T03:14:25.010Z,1009.93
2022-08-25T03:15:24.998Z,1009.95
2022-08-25T03:16:27.641Z,1009.94
2022-08-25T03:17:24.994Z,1009.96
2022-08-25T03:18:24.996Z,1009.94
2022-08-25T03:19:24.950Z,1009.94
2022-08-25T03:20:24.949Z,1009.90
2022-08-25T03:21:24.936Z,1009.91
2022-08-25T03:22:24.979Z,1009.88
2022-08-25T03:23:24.904Z,1009.88
2022-08-25T03:24:24.902Z,1009.89
2022-08-25T03:25:24.879Z,1009.89
2022-08-25T03:26:24.881Z,1009.85
2022-08-25T03:27:24.874Z,1009.85
2022-08-25T03:28:29.835Z,1009.84
2022-08-25T03:29:24.851Z,1009.82
2022-08-25T03:30:24.837Z,1009.82
2022-08-25T03:31:24.866Z,1009.83
2022-08-25T03:32:24.809Z,1009.82
2022-08-25T03:33:24.825Z,1009.78
2022-08-25T03:34:24.780Z,1009.77
2022-08-25T03:35:24.778Z,1009.80
2022-08-25T03:36:24.782Z,1009.75
2022-08-25T03:37:24.763Z,1009.76
2022-08-25T03:38:24.760Z,1009.75
2022-08-25T03:39:24.731Z,1009.72
2022-08-25T03:40:24.771Z,1009.76
2022-08-25T03:41:27.790Z,1009.71
2022-08-25T03:42:24.706Z,1009.70
2022-08-25T03:43:24.737Z,1009.68
2022-08-25T03:44:24.689Z,1009.69
2022-08-25T03:45:24.692Z,1009.69
2022-08-25T03:46:24.647Z,1009.68
2022-08-25T03:47:24.647Z,1009.63
2022-08-25T03:48:24.632Z,1009.63
2022-08-25T03:49:24.664Z,1009.61
2022-08-25T03:50:24.601Z,1009.57
2022-08-25T03:51:24.590Z,1009.53
2022-08-25T03:52:24.600Z,1009.58
2022-08-25T03:53:24.570Z,1009.57
2022-08-25T03:54:24.572Z,1009.53
2022-08-25T03:55:24.551Z,1009.52
2022-08-25T03:56:24.550Z,1009.53
2022-08-25T03:57:24.546Z,1009.54
2022-08-25T03:58:24.525Z,1009.53
2022-08-25T03:59:24.502Z,1009.52
2022-08-25T04:00:24.493Z,1009.53
2022-08-25T04:01:24.549Z,1009.48
2022-08-25T04:02:24.540Z,1009.48
2022-08-25T04:03:24.471Z,1009.52
2022-08-25T04:04:24.461Z,1009.48
2022-08-25T04:05:24.448Z,1009.48
2022-08-25T04:06:24.467Z,1009.45
2022-08-25T04:07:24.433Z,1009.49
2022-08-25T04:08:24.439Z,1009.51
2022-08-25T04:09:24.405Z,1009.51
2022-08-25T04:10:24.388Z,1009.54
2022-08-25T04:11:24.405Z,1009.53
2022-08-25T04:12:24.407Z,1009.53
2022-08-25T04:13:24.398Z,1009.53
2022-08-25T04:14:24.358Z,1009.52
2022-08-25T04:15:24.331Z,1009.51
2022-08-25T04:16:24.430Z,1009.51
2022-08-25T04:17:24.336Z,1009.49
2022-08-25T04:18:24.298Z,1009.50
2022-08-25T04:19:24.328Z,1009.49
2022-08-25T04:20:24.283Z,1009.52
2022-08-25T04:21:24.278Z,1009.51
2022-08-25T04:22:24.276Z,1009.49
2022-08-25T04:23:24.263Z,1009.50
2022-08-25T04:24:24.238Z,1009.52
2022-08-25T04:25:24.225Z,1009.49
2022-08-25T04:26:24.212Z,1009.47
2022-08-25T04:27:24.224Z,1009.56
2022-08-25T04:28:24.190Z,1009.53
2022-08-25T04:29:24.187Z,1009.51
2022-08-25T04:30:24.170Z,1009.52
2022-08-25T04:31:24.220Z,1009.49
2022-08-25T04:32:24.170Z,1009.49
2022-08-25T04:33:24.151Z,1009.44
2022-08-25T04:34:29.555Z,1009.43
2022-08-25T04:35:24.133Z,1009.45
2022-08-25T04:36:24.107Z,1009.39
2022-08-25T04:37:24.118Z,1009.38
2022-08-25T04:38:24.079Z,1009.36
2022-08-25T04:39:24.075Z,1009.38
2022-08-25T04:40:29.160Z,1009.42
2022-08-25T04:41:24.060Z,1009.42
2022-08-25T04:42:24.062Z,1009.40
2022-08-25T04:43:24.042Z,1009.41
2022-08-25T04:44:24.014Z,1009.38
2022-08-25T04:45:24.096Z,1009.37
2022-08-25T04:46:24.065Z,1009.36
2022-08-25T04:47:24.014Z,1009.36
2022-08-25T04:48:23.988Z,1009.36
2022-08-25T04:49:23.974Z,1009.35
2022-08-25T04:50:23.951Z,1009.31
2022-08-25T04:51:23.972Z,1009.32
2022-08-25T04:52:23.960Z,1009.34
2022-08-25T04:53:23.918Z,1009.34
2022-08-25T04:54:23.945Z,1009.32
2022-08-25T04:55:23.907Z,1009.32
2022-08-25T04:56:23.910Z,1009.30
2022-08-25T04:57:23.905Z,1009.31
2022-08-25T04:58:23.871Z,1009.32
2022-08-25T04:59:23.862Z,1009.30
2022-08-25T05:00:23.848Z,1009.33
2022-08-25T05:01:23.924Z,1009.31
2022-08-25T05:02:23.860Z,1009.31
2022-08-25T05:03:23.809Z,1009.24
2022-08-25T05:04:28.280Z,1009.27
2022-08-25T05:05:23.806Z,1009.22
2022-08-25T05:06:23.788Z,1009.24
2022-08-25T05:07:23.795Z,1009.23
2022-08-25T05:08:23.765Z,1009.22
2022-08-25T05:09:23.774Z,1009.24
2022-08-25T05:10:23.739Z,1009.24
2022-08-25T05:11:23.937Z,1009.20
2022-08-25T05:12:23.734Z,1009.20
2022-08-25T05:13:23.724Z,1009.28
2022-08-25T05:14:26.368Z,1009.30
2022-08-25T05:15:23.698Z,1009.24
2022-08-25T05:16:23.738Z,1009.28
2022-08-25T05:17:23.685Z,1009.34
2022-08-25T05:18:23.667Z,1009.28
2022-08-25T05:19:23.653Z,1009.31
2022-08-25T05:20:23.633Z,1009.32
2022-08-25T05:21:23.625Z,1009.33
2022-08-25T05:22:23.623Z,1009.38
2022-08-25T05:23:23.625Z,1009.37
2022-08-25T05:24:23.582Z,1009.40
2022-08-25T05:25:23.575Z,1009.42
2022-08-25T05:26:23.580Z,1009.44
2022-08-25T05:27:23.572Z,1009.42
2022-08-25T05:28:23.551Z,1009.45
2022-08-25T05:29:23.558Z,1009.48
2022-08-25T05:30:23.538Z,1009.50
2022-08-25T05:31:23.571Z,1009.50
2022-08-25T05:32:23.534Z,1009.46
2022-08-25T05:33:23.494Z,1009.46
2022-08-25T05:34:23.474Z,1009.44
2022-08-25T05:35:23.459Z,1009.45
2022-08-25T05:36:23.464Z,1009.41
2022-08-25T05:37:23.462Z,1009.39
2022-08-25T05:38:23.437Z,1009.41
2022-08-25T05:39:26.791Z,1009.40
2022-08-25T05:40:23.464Z,1009.41
2022-08-25T05:41:23.396Z,1009.38
2022-08-25T05:42:23.415Z,1009.37
2022-08-25T05:43:23.383Z,1009.41
2022-08-25T05:44:23.372Z,1009.39
2022-08-25T05:45:23.397Z,1009.43
2022-08-25T05:46:23.372Z,1009.40
2022-08-25T05:47:23.377Z,1009.39
2022-08-25T05:48:23.330Z,1009.41
2022-08-25T05:49:23.316Z,1009.38
2022-08-25T05:50:23.327Z,1009.39
2022-08-25T05:51:23.291Z,1009.39
2022-08-25T05:52:23.317Z,1009.39
2022-08-25T05:53:23.269Z,1009.39
2022-08-25T05:54:23.263Z,1009.40
2022-08-25T05:55:23.278Z,1009.40
2022-08-25T05:56:23.235Z,1009.30
2022-08-25T05:57:23.245Z,1009.30
2022-08-25T05:58:23.223Z,1009.31
2022-08-25T05:59:23.201Z,1009.29
2022-08-25T06:00:23.215Z,1009.26
2022-08-25T06:01:23.260Z,1009.25
2022-08-25T06:02:23.194Z,1009.26
2022-08-25T06:03:23.195Z,1009.26
2022-08-25T06:04:23.161Z,1009.26
2022-08-25T06:05:23.130Z,1009.25
2022-08-25T06:06:23.123Z,1009.22
2022-08-25T06:07:23.146Z,1009.25
2022-08-25T06:08:23.102Z,1009.25
2022-08-25T06:09:23.091Z,1009.27
2022-08-25T06:10:23.104Z,1009.31
2022-08-25T06:11:23.070Z,1009.28
2022-08-25T06:12:23.082Z,1009.29
2022-08-25T06:13:28.855Z,1009.31
2022-08-25T06:14:23.054Z,1009.29
2022-08-25T06:15:23.019Z,1009.22
2022-08-25T06:16:23.066Z,1009.23
2022-08-25T06:17:23.023Z,1009.22
2022-08-25T06:18:22.994Z,1009.21
2022-08-25T06:19:22.995Z,1009.21
2022-08-25T06:20:25.799Z,1009.21
2022-08-25T06:21:22.964Z,1009.21
2022-08-25T06:22:22.997Z,1009.20
2022-08-25T06:23:22.933Z,1009.22
2022-08-25T06:24:22.924Z,1009.22
2022-08-25T06:25:22.911Z,1009.22
2022-08-25T06:26:22.895Z,1009.23
2022-08-25T06:27:22.905Z,1009.23
2022-08-25T06:28:22.878Z,1009.22
2022-08-25T06:29:22.871Z,1009.24
2022-08-25T06:30:24.500Z,1009.28
2022-08-25T06:31:22.899Z,1009.25
2022-08-25T06:32:22.847Z,1009.23
2022-08-25T06:33:22.826Z,1009.23
2022-08-25T06:34:23.803Z,1009.24
2022-08-25T06:35:22.830Z,1009.26
2022-08-25T06:36:22.785Z,1009.22
2022-08-25T06:37:25.154Z,1009.21
2022-08-25T06:38:22.764Z,1009.22
2022-08-25T06:39:22.757Z,1009.18
2022-08-25T06:40:22.778Z,1009.18
2022-08-25T06:41:22.770Z,1009.18
2022-08-25T06:42:22.749Z,1009.18
2022-08-25T06:43:22.718Z,1009.23
2022-08-25T06:44:22.692Z,1009.24
2022-08-25T06:45:22.689Z,1009.23
2022-08-25T06:46:22.753Z,1009.29
2022-08-25T06:47:22.761Z,1009.27
2022-08-25T06:48:22.650Z,1009.27
2022-08-25T06:49:22.642Z,1009.27
2022-08-25T06:50:22.629Z,1009.25
2022-08-25T06:51:22.616Z,1009.27
2022-08-25T06:52:22.621Z,1009.32
2022-08-25T06:53:22.604Z,1009.31
2022-08-25T06:54:22.598Z,1009.33
2022-08-25T06:55:22.590Z,1009.29
2022-08-25T06:56:22.565Z,1009.33
2022-08-25T06:57:22.570Z,1009.32
2022-08-25T06:58:22.540Z,1009.35
2022-08-25T06:59:22.573Z,1009.32
2022-08-25T07:00:22.553Z,1009.30
2022-08-25T07:01:22.647Z,1009.33
2022-08-25T07:02:22.710Z,1009.33
2022-08-25T07:04:22.480Z,1009.28
2022-08-25T07:05:33.679Z,1009.25
2022-08-25T07:06:22.455Z,1009.23
2022-08-25T07:07:22.476Z,1009.27
2022-08-25T07:08:22.435Z,1009.23
2022-08-25T07:09:22.425Z,1009.25
2022-08-25T07:10:22.415Z,1009.27
2022-08-25T07:11:22.397Z,1009.30
2022-08-25T07:12:22.415Z,1009.31
2022-08-25T07:13:22.382Z,1009.32
2022-08-25T07:14:22.371Z,1009.31
2022-08-25T07:15:22.356Z,1009.33
2022-08-25T07:16:22.559Z,1009.30
2022-08-25T07:17:22.362Z,1009.30
2022-08-25T07:18:22.334Z,1009.30
2022-08-25T07:19:22.308Z,1009.27
2022-08-25T07:21:25.006Z,1009.33
2022-08-25T07:22:22.308Z,1009.29
2022-08-25T07:23:22.267Z,1009.30
2022-08-25T07:24:22.275Z,1009.34
2022-08-25T07:25:22.248Z,1009.34
2022-08-25T07:26:36.918Z,1009.37
2022-08-25T07:27:22.268Z,1009.39
2022-08-25T07:28:22.228Z,1009.42
2022-08-25T07:29:32.051Z,1009.42
2022-08-25T07:30:22.227Z,1009.45
2022-08-25T07:31:22.221Z,1009.47
2022-08-25T07:32:22.204Z,1009.47
2022-08-25T07:33:22.161Z,1009.47
2022-08-25T07:34:22.144Z,1009.43
2022-08-25T07:35:24.142Z,1009.41
2022-08-25T07:36:22.124Z,1009.38
2022-08-25T07:37:50.112Z,1009.41
2022-08-25T07:38:22.107Z,1009.37
2022-08-25T07:39:22.284Z,1009.40
2022-08-25T07:40:22.231Z,1009.41
2022-08-25T07:41:22.085Z,1009.43
2022-08-25T07:42:22.060Z,1009.41
2022-08-25T07:43:22.080Z,1009.43
2022-08-25T07:44:22.039Z,1009.45
2022-08-25T07:45:22.026Z,1009.43
2022-08-25T07:46:22.106Z,1009.46
2022-08-25T07:47:23.098Z,1009.47
2022-08-25T07:48:22.010Z,1009.49
2022-08-25T07:49:23.479Z,1009.53
2022-08-25T07:50:22.049Z,1009.51
2022-08-25T07:51:21.990Z,1009.48
2022-08-25T07:52:21.946Z,1009.47
2022-08-25T07:53:21.986Z,1009.47
2022-08-25T07:54:21.951Z,1009.42
2022-08-25T07:55:21.936Z,1009.43
2022-08-25T07:56:21.908Z,1009.43
2022-08-25T07:57:21.907Z,1009.41
2022-08-25T07:58:21.941Z,1009.40
2022-08-25T07:59:21.883Z,1009.39
2022-08-25T08:00:21.916Z,1009.42
2022-08-25T08:01:21.926Z,1009.43
2022-08-25T08:02:21.915Z,1009.44
2022-08-25T08:03:42.162Z,1009.40
2022-08-25T08:04:21.848Z,1009.39
2022-08-25T08:05:23.989Z,1009.39
2022-08-25T08:06:21.827Z,1009.35
2022-08-25T08:07:23.017Z,1009.35
2022-08-25T08:08:21.815Z,1009.38
2022-08-25T08:09:21.801Z,1009.32
2022-08-25T08:11:21.804Z,1009.32
2022-08-25T08:12:21.744Z,1009.30
2022-08-25T08:13:21.750Z,1009.30
2022-08-25T08:14:21.751Z,1009.29
2022-08-25T08:15:21.737Z,1009.32
2022-08-25T08:16:21.799Z,1009.34
2022-08-25T08:17:21.756Z,1009.34
2022-08-25T08:18:21.707Z,1009.34
2022-08-25T08:19:23.011Z,1009.36
2022-08-25T08:20:23.472Z,1009.36
2022-08-25T08:21:21.699Z,1009.34
2022-08-25T08:22:21.628Z,1009.29
2022-08-25T08:23:21.628Z,1009.30
2022-08-25T08:24:40.824Z,1009.30
2022-08-25T08:25:27.425Z,1009.27
2022-08-25T08:26:22.462Z,1009.25
2022-08-25T08:27:21.581Z,1009.27
2022-08-25T08:28:21.568Z,1009.24
2022-08-25T08:29:21.559Z,1009.27
2022-08-25T08:30:21.571Z,1009.23
2022-08-25T08:31:21.669Z,1009.20
2022-08-25T08:32:25.270Z,1009.18
2022-08-25T08:33:21.517Z,1009.13
2022-08-25T08:34:24.794Z,1009.06
2022-08-25T08:35:21.524Z,1009.11
2022-08-25T08:36:21.476Z,1009.10
2022-08-25T08:37:21.991Z,1009.09
2022-08-25T08:38:26.877Z,1009.07
2022-08-25T08:39:21.456Z,1009.07
2022-08-25T08:40:21.530Z,1009.05
2022-08-25T08:41:23.275Z,1009.04
2022-08-25T08:42:21.405Z,1009.05
2022-08-25T08:43:21.429Z,1009.03
2022-08-25T08:44:21.395Z,1009.03
2022-08-25T08:45:21.413Z,1009.02
2022-08-25T08:46:21.388Z,1009.00
2022-08-25T08:47:21.353Z,1009.00
2022-08-25T08:48:21.342Z,1008.97
2022-08-25T08:49:21.391Z,1009.00
2022-08-25T08:50:24.925Z,1008.97
2022-08-25T08:51:23.200Z,1008.97
2022-08-25T08:52:21.307Z,1008.97
2022-08-25T08:53:21.635Z,1009.01
2022-08-25T08:54:21.273Z,1008.98
2022-08-25T08:55:21.269Z,1009.01
2022-08-25T08:56:21.312Z,1009.01
2022-08-25T08:57:21.254Z,1009.01
2022-08-25T08:58:21.240Z,1008.99
2022-08-25T08:59:21.241Z,1008.99
2022-08-25T09:00:21.225Z,1008.98
2022-08-25T09:01:21.271Z,1008.93
2022-08-25T09:02:38.539Z,1008.96
2022-08-25T09:03:21.227Z,1008.91
2022-08-25T09:04:21.181Z,1008.89
2022-08-25T09:05:21.166Z,1008.91
2022-08-25T09:06:21.169Z,1008.88
2022-08-25T09:07:21.152Z,1008.88
2022-08-25T09:08:21.137Z,1008.93
2022-08-25T09:09:21.132Z,1008.92
2022-08-25T09:10:21.109Z,1008.91
2022-08-25T09:11:21.122Z,1008.89
2022-08-25T09:12:21.134Z,1008.89
2022-08-25T09:13:21.075Z,1008.92
2022-08-25T09:14:21.086Z,1008.92
2022-08-25T09:15:21.071Z,1008.88
2022-08-25T09:16:31.922Z,1008.87
2022-08-25T09:17:21.054Z,1008.86
2022-08-25T09:18:21.043Z,1008.85
2022-08-25T09:19:21.408Z,1008.80
2022-08-25T09:20:21.090Z,1008.81
2022-08-25T09:21:21.028Z,1008.77
2022-08-25T09:22:35.037Z,1008.87
2022-08-25T09:23:20.977Z,1008.82
2022-08-25T09:24:20.963Z,1008.85
2022-08-25T09:25:29.554Z,1008.79
2022-08-25T09:26:20.935Z,1008.76
2022-08-25T09:27:21.185Z,1008.70
2022-08-25T09:28:20.937Z,1008.76
2022-08-25T09:29:20.910Z,1008.71
2022-08-25T09:30:20.896Z,1008.71
2022-08-25T09:31:20.975Z,1008.71
2022-08-25T09:32:24.155Z,1008.68
2022-08-25T09:33:21.128Z,1008.71
2022-08-25T09:34:20.850Z,1008.65
2022-08-25T09:35:20.842Z,1008.71
2022-08-25T09:36:20.830Z,1008.66
2022-08-25T09:37:20.827Z,1008.68
2022-08-25T09:38:20.824Z,1008.64
2022-08-25T09:39:20.797Z,1008.61
2022-08-25T09:40:20.832Z,1008.54
2022-08-25T09:41:20.781Z,1008.56
2022-08-25T09:42:23.914Z,1008.50
2022-08-25T09:43:20.751Z,1008.48
2022-08-25T09:44:20.724Z,1008.53
2022-08-25T09:45:20.725Z,1008.51
2022-08-25T09:46:20.917Z,1008.52
2022-08-25T09:47:20.747Z,1008.55
2022-08-25T09:48:20.683Z,1008.58
2022-08-25T09:49:20.680Z,1008.60
2022-08-25T09:50:20.666Z,1008.57
2022-08-25T09:51:20.669Z,1008.56
2022-08-25T09:52:20.677Z,1008.57
2022-08-25T09:53:21.727Z,1008.54
2022-08-25T09:54:20.615Z,1008.48
2022-08-25T09:55:20.608Z,1008.48
2022-08-25T09:56:20.606Z,1008.44
2022-08-25T09:57:20.623Z,1008.42
2022-08-25T09:58:20.596Z,1008.37
2022-08-25T09:59:20.564Z,1008.36
2022-08-25T10:00:20.574Z,1008.34
2022-08-25T10:01:22.325Z,1008.31
2022-08-25T10:02:20.531Z,1008.31
2022-08-25T10:03:22.840Z,1008.34
2022-08-25T10:04:20.914Z,1008.31
2022-08-25T10:05:20.612Z,1008.31
2022-08-25T10:06:20.546Z,1008.25
2022-08-25T10:07:20.489Z,1008.26
2022-08-25T10:08:24.722Z,1008.16
2022-08-25T10:09:20.480Z,1008.21
2022-08-25T10:10:20.446Z,1008.20
2022-08-25T10:11:20.433Z,1008.13
2022-08-25T10:12:21.044Z,1008.11
2022-08-25T10:13:22.821Z,1008.13
2022-08-25T10:14:20.414Z,1008.15
2022-08-25T10:15:29.167Z,1008.09
2022-08-25T10:16:24.460Z,1008.11
2022-08-25T10:17:20.374Z,1008.08
2022-08-25T10:18:20.364Z,1008.15
2022-08-25T10:19:20.372Z,1008.13
2022-08-25T10:20:20.341Z,1008.14
2022-08-25T10:21:20.333Z,1008.13
2022-08-25T10:22:20.366Z,1008.12
2022-08-25T10:23:20.318Z,1008.09
2022-08-25T10:24:20.327Z,1008.06
2022-08-25T10:25:20.296Z,1008.02
2022-08-25T10:26:20.312Z,1008.04
2022-08-25T10:27:20.262Z,1008.02
2022-08-25T10:28:20.258Z,1007.98
2022-08-25T10:29:20.263Z,1007.97
2022-08-25T10:30:20.238Z,1008.00
2022-08-25T10:31:20.315Z,1007.95
2022-08-25T10:32:20.223Z,1007.89
2022-08-25T10:33:20.200Z,1007.87
2022-08-25T10:34:20.230Z,1007.85
2022-08-25T10:35:20.251Z,1007.84
2022-08-25T10:36:20.448Z,1007.82
2022-08-25T10:37:20.157Z,1007.78
2022-08-25T10:38:21.841Z,1007.73
2022-08-25T10:39:34.109Z,1007.76
2022-08-25T10:40:20.193Z,1007.63
2022-08-25T10:41:20.120Z,1007.69
2022-08-25T10:42:20.108Z,1007.67
2022-08-25T10:43:20.111Z,1007.64
2022-08-25T10:44:20.093Z,1007.62
2022-08-25T10:45:21.706Z,1007.61
2022-08-25T10:46:20.130Z,1007.61
2022-08-25T10:47:20.056Z,1007.62
2022-08-25T10:48:20.044Z,1007.62
2022-08-25T10:49:20.027Z,1007.59
2022-08-25T10:50:20.018Z,1007.58
2022-08-25T10:51:24.882Z,1007.58
2022-08-25T10:52:20.069Z,1007.59
2022-08-25T10:53:19.984Z,1007.61
2022-08-25T10:54:20.217Z,1007.53
2022-08-25T10:55:19.965Z,1007.51
2022-08-25T10:56:19.978Z,1007.52
2022-08-25T10:57:19.958Z,1007.54
2022-08-25T10:58:19.952Z,1007.50
2022-08-25T10:59:19.965Z,1007.49
2022-08-25T11:00:19.938Z,1007.45
2022-08-25T11:01:19.957Z,1007.45
2022-08-25T11:02:19.953Z,1007.42
2022-08-25T11:03:19.893Z,1007.46
2022-08-25T11:04:19.871Z,1007.45
2022-08-25T11:05:24.498Z,1007.48
2022-08-25T11:06:19.903Z,1007.51
2022-08-25T11:07:19.832Z,1007.48
2022-08-25T11:08:19.841Z,1007.51
2022-08-25T11:09:19.813Z,1007.54
2022-08-25T11:10:19.826Z,1007.50
2022-08-25T11:11:19.795Z,1007.49
2022-08-25T11:12:19.803Z,1007.43
2022-08-25T11:13:19.773Z,1007.42
2022-08-25T11:14:19.760Z,1007.38
2022-08-25T11:15:19.771Z,1007.37
2022-08-25T11:16:19.963Z,1007.42
2022-08-25T11:17:19.789Z,1007.42
2022-08-25T11:18:19.787Z,1007.42
2022-08-25T11:19:19.716Z,1007.40
2022-08-25T11:20:26.796Z,1007.39
2022-08-25T11:21:19.705Z,1007.38
2022-08-25T11:22:19.734Z,1007.38
2022-08-25T11:23:19.719Z,1007.35
2022-08-25T11:24:19.666Z,1007.37
2022-08-25T11:25:19.683Z,1007.36
2022-08-25T11:26:19.637Z,1007.31
2022-08-25T11:27:19.629Z,1007.28
2022-08-25T11:28:19.661Z,1007.23
2022-08-25T11:29:19.606Z,1007.23
2022-08-25T11:30:19.608Z,1007.27
2022-08-25T11:31:19.637Z,1007.28
2022-08-25T11:32:19.622Z,1007.24
2022-08-25T11:33:19.721Z,1007.24
2022-08-25T11:34:19.751Z,1007.20
2022-08-25T11:35:19.541Z,1007.24
2022-08-25T11:36:19.555Z,1007.26
2022-08-25T11:37:19.550Z,1007.34
2022-08-25T11:38:19.562Z,1007.34
2022-08-25T11:39:19.497Z,1007.29
2022-08-25T11:40:19.562Z,1007.31
2022-08-25T11:41:19.542Z,1007.28
2022-08-25T11:42:19.498Z,1007.30
2022-08-25T11:43:19.475Z,1007.30
2022-08-25T11:44:19.467Z,1007.23
2022-08-25T11:45:19.435Z,1007.21
2022-08-25T11:46:19.507Z,1007.21
2022-08-25T11:47:21.475Z,1007.21
2022-08-25T11:48:19.459Z,1007.23
2022-08-25T11:49:19.389Z,1007.22
2022-08-25T11:50:19.396Z,1007.21
2022-08-25T11:51:19.433Z,1007.20
2022-08-25T11:52:19.385Z,1007.22
2022-08-25T11:53:19.438Z,1007.25
2022-08-25T11:54:19.368Z,1007.27
2022-08-25T11:55:22.971Z,1007.28
2022-08-25T11:56:19.328Z,1007.28
2022-08-25T11:57:19.306Z,1007.26
2022-08-25T11:58:19.350Z,1007.29
2022-08-25T11:59:19.308Z,1007.21
2022-08-25T12:00:19.293Z,1007.23
2022-08-25T12:01:19.262Z,1007.14
2022-08-25T12:02:19.268Z,1007.18
2022-08-25T12:03:19.241Z,1007.19
2022-08-25T12:04:19.313Z,1007.21
2022-08-25T12:05:19.411Z,1007.23
2022-08-25T12:06:19.223Z,1007.29
2022-08-25T12:07:19.217Z,1007.23
2022-08-25T12:08:19.218Z,1007.20